createdAt,value
2017-06-29T00:00:36.254Z,0
2017-06-29T00:01:16.857Z,0
2017-06-29T00:01:57.443Z,0
2017-06-29T00:02:38.046Z,0
2017-06-29T00:03:18.661Z,0
2017-06-29T00:03:59.250Z,0
2017-06-29T00:04:39.902Z,0
2017-06-29T00:05:20.501Z,0
2017-06-29T00:06:01.085Z,0
2017-06-29T00:06:41.656Z,0
2017-06-29T00:07:22.276Z,0
2017-06-29T00:08:02.837Z,0
2017-06-29T00:08:43.409Z,0
2017-06-29T00:09:24.001Z,0
2017-06-29T00:10:04.576Z,0
2017-06-29T00:10:45.141Z,0
2017-06-29T00:11:25.735Z,0
2017-06-29T00:12:06.291Z,0
2017-06-29T00:12:46.865Z,0
2017-06-29T00:13:27.435Z,0
2017-06-29T00:14:08.033Z,0
2017-06-29T00:14:48.628Z,0
2017-06-29T00:15:29.228Z,0
2017-06-29T00:16:09.794Z,0
2017-06-29T00:16:50.374Z,0
2017-06-29T00:17:30.978Z,0
2017-06-29T00:18:11.559Z,0
2017-06-29T00:18:52.138Z,0
2017-06-29T00:19:32.716Z,0
2017-06-29T00:20:13.283Z,0
2017-06-29T00:20:53.866Z,0
2017-06-29T00:21:34.440Z,0
2017-06-29T00:22:15.008Z,0
2017-06-29T00:22:55.585Z,0
2017-06-29T00:23:36.165Z,0
2017-06-29T00:24:16.761Z,0
2017-06-29T00:24:57.334Z,0
2017-06-29T00:25:37.941Z,0
2017-06-29T00:26:18.545Z,0
2017-06-29T00:26:59.126Z,0
2017-06-29T00:27:39.727Z,0
2017-06-29T00:28:20.313Z,0
2017-06-29T00:29:00.907Z,0
2017-06-29T00:29:41.480Z,0
2017-06-29T00:30:22.045Z,0
2017-06-29T00:31:02.651Z,0
2017-06-29T00:31:43.254Z,0
2017-06-29T00:32:23.849Z,0
2017-06-29T00:33:04.425Z,0
2017-06-29T00:33:45.006Z,0
2017-06-29T00:34:25.600Z,0
2017-06-29T00:35:06.191Z,0
2017-06-29T00:35:46.767Z,0
2017-06-29T00:36:27.325Z,0
2017-06-29T00:37:07.921Z,0
2017-06-29T00:37:48.514Z,0
2017-06-29T00:38:29.120Z,0
2017-06-29T00:39:09.707Z,0
2017-06-29T00:39:50.284Z,0
2017-06-29T00:40:30.873Z,0
2017-06-29T00:41:11.472Z,0
2017-06-29T00:41:52.070Z,0
2017-06-29T00:42:32.730Z,0
2017-06-29T00:43:13.260Z,0
2017-06-29T00:43:53.844Z,0
2017-06-29T00:44:34.424Z,0
2017-06-29T00:45:14.999Z,0
2017-06-29T00:45:55.601Z,0
2017-06-29T00:46:36.210Z,0
2017-06-29T00:47:16.769Z,0
2017-06-29T00:47:57.345Z,0
2017-06-29T00:48:37.933Z,0
2017-06-29T00:49:18.531Z,0
2017-06-29T00:49:59.106Z,0
2017-06-29T00:50:39.717Z,0
2017-06-29T00:51:20.316Z,0
2017-06-29T00:52:00.924Z,0
2017-06-29T00:52:41.536Z,0
2017-06-29T00:53:22.112Z,0
2017-06-29T00:54:02.679Z,0
2017-06-29T00:54:43.260Z,0
2017-06-29T00:55:23.821Z,0
2017-06-29T00:56:04.422Z,0
2017-06-29T00:56:44.983Z,0
2017-06-29T00:57:25.559Z,0
2017-06-29T00:58:06.141Z,0
2017-06-29T00:58:46.728Z,0
2017-06-29T00:59:27.298Z,0
2017-06-29T01:00:07.871Z,0
2017-06-29T01:00:48.441Z,0
2017-06-29T01:01:29.015Z,0
2017-06-29T01:02:09.595Z,0
2017-06-29T01:02:50.189Z,0
2017-06-29T01:03:30.754Z,0
2017-06-29T01:04:11.331Z,0
2017-06-29T01:04:51.903Z,0
2017-06-29T01:05:32.479Z,0
2017-06-29T01:06:13.058Z,0
2017-06-29T01:06:53.638Z,0
2017-06-29T01:07:34.202Z,0
2017-06-29T01:08:14.798Z,0
2017-06-29T01:08:55.389Z,0
2017-06-29T01:09:35.946Z,0
2017-06-29T01:10:16.532Z,0
2017-06-29T01:10:57.129Z,0
2017-06-29T01:11:37.706Z,0
2017-06-29T01:12:18.308Z,0
2017-06-29T01:12:58.903Z,0
2017-06-29T01:13:39.492Z,0
2017-06-29T01:14:20.073Z,0
2017-06-29T01:15:00.672Z,0
2017-06-29T01:15:41.259Z,0
2017-06-29T01:16:21.836Z,0
2017-06-29T01:17:02.425Z,0
2017-06-29T01:17:43.009Z,0
2017-06-29T01:18:23.597Z,0
2017-06-29T01:19:04.197Z,0
2017-06-29T01:19:44.767Z,0
2017-06-29T01:20:25.405Z,0
2017-06-29T01:21:06.012Z,0
2017-06-29T01:21:46.599Z,0
2017-06-29T01:22:27.169Z,0
2017-06-29T01:23:07.781Z,0
2017-06-29T01:23:48.371Z,0
2017-06-29T01:24:28.961Z,0
2017-06-29T01:25:09.568Z,0
2017-06-29T01:25:50.161Z,0
2017-06-29T01:26:30.728Z,0
2017-06-29T01:27:11.350Z,0
2017-06-29T01:27:51.945Z,0
2017-06-29T01:28:32.539Z,0
2017-06-29T01:29:13.140Z,0
2017-06-29T01:29:53.729Z,0
2017-06-29T01:30:34.402Z,0
2017-06-29T01:31:14.976Z,0
2017-06-29T01:31:55.590Z,0
2017-06-29T01:32:36.154Z,0
2017-06-29T01:33:16.744Z,0
2017-06-29T01:33:57.296Z,0
2017-06-29T01:34:37.874Z,0
2017-06-29T01:35:18.450Z,0
2017-06-29T01:35:59.020Z,0
2017-06-29T01:36:39.638Z,0
2017-06-29T01:37:20.201Z,0
2017-06-29T01:38:00.761Z,0
2017-06-29T01:38:41.361Z,0
2017-06-29T01:39:21.913Z,0
2017-06-29T01:40:02.506Z,0
2017-06-29T01:40:43.097Z,0
2017-06-29T01:41:23.674Z,0
2017-06-29T01:42:04.272Z,0
2017-06-29T01:42:44.853Z,0
2017-06-29T01:43:25.432Z,0
2017-06-29T01:44:06.037Z,0
2017-06-29T01:44:46.633Z,0
2017-06-29T01:45:27.187Z,0
2017-06-29T01:46:07.764Z,0
2017-06-29T01:46:48.335Z,0
2017-06-29T01:47:28.929Z,0
2017-06-29T01:48:09.498Z,0
2017-06-29T01:48:50.096Z,0
2017-06-29T01:49:30.698Z,0
2017-06-29T01:50:11.276Z,0
2017-06-29T01:50:51.844Z,0
2017-06-29T01:51:32.413Z,0
2017-06-29T01:52:13.005Z,0
2017-06-29T01:52:53.584Z,0
2017-06-29T01:53:34.147Z,0
2017-06-29T01:54:14.715Z,0
2017-06-29T01:54:55.310Z,0
2017-06-29T01:55:35.912Z,0
2017-06-29T01:56:16.501Z,0
2017-06-29T01:56:57.088Z,0
2017-06-29T01:57:37.677Z,0
2017-06-29T01:58:18.258Z,0
2017-06-29T01:58:58.833Z,0
2017-06-29T01:59:39.442Z,0
2017-06-29T02:00:20.025Z,0
2017-06-29T02:01:00.598Z,0
2017-06-29T02:01:41.178Z,0
2017-06-29T02:02:21.771Z,0
2017-06-29T02:03:02.334Z,0
2017-06-29T02:03:42.950Z,0
2017-06-29T02:04:23.542Z,0
2017-06-29T02:05:04.138Z,0
2017-06-29T02:05:44.762Z,0
2017-06-29T02:06:25.324Z,0
2017-06-29T02:07:05.955Z,0
2017-06-29T02:07:46.551Z,0
2017-06-29T02:08:27.151Z,0
2017-06-29T02:09:07.748Z,0
2017-06-29T02:09:48.309Z,0
2017-06-29T02:10:28.880Z,0
2017-06-29T02:11:09.452Z,0
2017-06-29T02:11:50.024Z,0
2017-06-29T02:12:30.651Z,0
2017-06-29T02:13:11.223Z,0
2017-06-29T02:13:51.800Z,0
2017-06-29T02:14:32.377Z,0
2017-06-29T02:15:13.052Z,0
2017-06-29T02:15:53.661Z,0
2017-06-29T02:16:34.239Z,0
2017-06-29T02:17:14.804Z,0
2017-06-29T02:17:55.375Z,0
2017-06-29T02:18:35.957Z,0
2017-06-29T02:19:16.555Z,0
2017-06-29T02:19:57.148Z,0
2017-06-29T02:20:37.794Z,0
2017-06-29T02:21:18.388Z,0
2017-06-29T02:21:58.983Z,0
2017-06-29T02:22:39.557Z,0
2017-06-29T02:23:20.230Z,0
2017-06-29T02:24:00.857Z,0
2017-06-29T02:24:41.436Z,0
2017-06-29T02:25:22.004Z,0
2017-06-29T02:26:02.585Z,0
2017-06-29T02:26:43.196Z,0
2017-06-29T02:27:23.763Z,0
2017-06-29T02:28:04.363Z,0
2017-06-29T02:28:44.932Z,0
2017-06-29T02:29:25.512Z,0
2017-06-29T02:30:06.088Z,0
2017-06-29T02:30:46.660Z,0
2017-06-29T02:31:27.241Z,0
2017-06-29T02:32:07.843Z,0
2017-06-29T02:32:48.407Z,0
2017-06-29T02:33:28.992Z,0
2017-06-29T02:34:09.606Z,0
2017-06-29T02:34:50.204Z,0
2017-06-29T02:35:30.801Z,0
2017-06-29T02:36:11.368Z,0
2017-06-29T02:36:51.948Z,0
2017-06-29T02:37:32.548Z,0
2017-06-29T02:38:13.114Z,0
2017-06-29T02:38:53.680Z,0
2017-06-29T02:39:34.261Z,0
2017-06-29T02:40:14.855Z,0
2017-06-29T02:40:55.419Z,0
2017-06-29T02:41:36.007Z,0
2017-06-29T02:42:16.599Z,0
2017-06-29T02:42:57.171Z,0
2017-06-29T02:43:37.752Z,0
2017-06-29T02:44:18.335Z,0
2017-06-29T02:44:58.975Z,0
2017-06-29T02:45:39.580Z,0
2017-06-29T02:46:20.188Z,0
2017-06-29T02:47:00.783Z,0
2017-06-29T02:47:41.367Z,0
2017-06-29T02:48:21.937Z,0
2017-06-29T02:49:02.554Z,0
2017-06-29T02:49:43.138Z,0
2017-06-29T02:50:23.726Z,0
2017-06-29T02:51:04.272Z,0
2017-06-29T02:51:44.849Z,0
2017-06-29T02:52:25.420Z,0
2017-06-29T02:53:06.010Z,0
2017-06-29T02:53:46.599Z,0
2017-06-29T02:54:27.174Z,0
2017-06-29T02:55:07.757Z,0
2017-06-29T02:55:48.331Z,0
2017-06-29T02:56:28.908Z,0
2017-06-29T02:57:09.480Z,0
2017-06-29T02:57:50.059Z,0
2017-06-29T02:58:30.652Z,0
2017-06-29T02:59:11.249Z,5
2017-06-29T02:59:51.846Z,5
2017-06-29T03:00:32.418Z,5
2017-06-29T03:01:12.982Z,5
2017-06-29T03:01:53.548Z,5
2017-06-29T03:02:34.120Z,5
2017-06-29T03:03:14.696Z,5
2017-06-29T03:03:55.271Z,5
2017-06-29T03:04:35.834Z,5
2017-06-29T03:05:16.427Z,5
2017-06-29T03:05:56.998Z,5
2017-06-29T03:06:37.588Z,5
2017-06-29T03:07:18.158Z,5
2017-06-29T03:07:58.760Z,5
2017-06-29T03:08:39.348Z,5
2017-06-29T03:09:19.917Z,5
2017-06-29T03:10:00.529Z,5
2017-06-29T03:10:41.089Z,5
2017-06-29T03:11:21.657Z,5
2017-06-29T03:12:02.303Z,5
2017-06-29T03:12:42.890Z,5
2017-06-29T03:13:23.469Z,5
2017-06-29T03:14:04.050Z,5
2017-06-29T03:14:44.628Z,5
2017-06-29T03:15:25.223Z,5
2017-06-29T03:16:05.826Z,5
2017-06-29T03:16:46.402Z,5
2017-06-29T03:17:26.984Z,5
2017-06-29T03:18:07.565Z,5
2017-06-29T03:18:48.152Z,10
2017-06-29T03:19:28.760Z,5
2017-06-29T03:20:09.341Z,5
2017-06-29T03:20:49.907Z,5
2017-06-29T03:21:30.499Z,5
2017-06-29T03:22:11.088Z,5
2017-06-29T03:22:51.658Z,5
2017-06-29T03:23:32.239Z,5
2017-06-29T03:24:12.803Z,5
2017-06-29T03:24:53.378Z,5
2017-06-29T03:25:33.992Z,5
2017-06-29T03:26:14.561Z,5
2017-06-29T03:26:55.134Z,5
2017-06-29T03:27:35.768Z,5
2017-06-29T03:28:16.361Z,10
2017-06-29T03:28:56.933Z,10
2017-06-29T03:29:37.521Z,10
2017-06-29T03:30:18.090Z,10
2017-06-29T03:30:58.673Z,10
2017-06-29T03:31:39.243Z,10
2017-06-29T03:32:19.823Z,10
2017-06-29T03:33:00.417Z,10
2017-06-29T03:33:41.015Z,10
2017-06-29T03:34:21.644Z,10
2017-06-29T03:35:02.225Z,15
2017-06-29T03:35:42.825Z,15
2017-06-29T03:36:23.412Z,15
2017-06-29T03:37:03.974Z,15
2017-06-29T03:37:44.548Z,15
2017-06-29T03:38:25.106Z,15
2017-06-29T03:39:05.711Z,15
2017-06-29T03:39:46.304Z,20
2017-06-29T03:40:26.894Z,20
2017-06-29T03:41:07.491Z,20
2017-06-29T03:41:48.083Z,20
2017-06-29T03:42:28.670Z,20
2017-06-29T03:43:09.243Z,20
2017-06-29T03:43:49.854Z,20
2017-06-29T03:44:30.450Z,20
2017-06-29T03:45:11.044Z,20
2017-06-29T03:45:51.634Z,20
2017-06-29T03:46:32.209Z,20
2017-06-29T03:47:12.777Z,20
2017-06-29T03:47:53.373Z,20
2017-06-29T03:48:33.966Z,20
2017-06-29T03:49:14.576Z,20
2017-06-29T03:49:55.160Z,20
2017-06-29T03:50:35.744Z,20
2017-06-29T03:51:16.363Z,25
2017-06-29T03:51:56.907Z,25
2017-06-29T03:52:37.481Z,25
2017-06-29T03:53:18.076Z,25
2017-06-29T03:53:58.638Z,25
2017-06-29T03:54:39.212Z,30
2017-06-29T03:55:19.823Z,25
2017-06-29T03:56:00.398Z,25
2017-06-29T03:56:40.973Z,25
2017-06-29T03:57:21.559Z,25
2017-06-29T03:58:02.143Z,25
2017-06-29T03:58:42.734Z,25
2017-06-29T03:59:23.325Z,25
2017-06-29T04:00:03.890Z,25
2017-06-29T04:00:44.460Z,25
2017-06-29T04:01:25.055Z,25
2017-06-29T04:02:05.659Z,25
2017-06-29T04:02:46.231Z,25
2017-06-29T04:03:26.810Z,25
2017-06-29T04:04:07.443Z,25
2017-06-29T04:04:48.018Z,25
2017-06-29T04:05:28.577Z,25
2017-06-29T04:06:09.182Z,25
2017-06-29T04:06:49.814Z,25
2017-06-29T04:07:30.387Z,25
2017-06-29T04:08:10.996Z,25
2017-06-29T04:08:51.555Z,30
2017-06-29T04:09:32.133Z,25
2017-06-29T04:10:12.691Z,30
2017-06-29T04:10:53.279Z,30
2017-06-29T04:11:33.857Z,30
2017-06-29T04:12:14.452Z,30
2017-06-29T04:12:55.035Z,35
2017-06-29T04:13:35.640Z,35
2017-06-29T04:14:16.203Z,40
2017-06-29T04:14:56.781Z,40
2017-06-29T04:15:37.352Z,40
2017-06-29T04:16:17.943Z,40
2017-06-29T04:16:58.539Z,40
2017-06-29T04:17:39.161Z,40
2017-06-29T04:18:19.736Z,40
2017-06-29T04:19:00.314Z,50
2017-06-29T04:19:40.909Z,55
2017-06-29T04:20:21.522Z,50
2017-06-29T04:21:02.094Z,55
2017-06-29T04:21:42.698Z,55
2017-06-29T04:22:23.284Z,50
2017-06-29T04:23:03.863Z,45
2017-06-29T04:23:44.438Z,45
2017-06-29T04:24:25.040Z,40
2017-06-29T04:25:05.604Z,35
2017-06-29T04:25:46.227Z,30
2017-06-29T04:26:26.829Z,25
2017-06-29T04:27:07.392Z,25
2017-06-29T04:27:47.949Z,20
2017-06-29T04:28:28.550Z,20
2017-06-29T04:29:09.138Z,20
2017-06-29T04:29:49.738Z,20
2017-06-29T04:30:30.316Z,20
2017-06-29T04:31:10.911Z,20
2017-06-29T04:31:51.503Z,20
2017-06-29T04:32:32.080Z,20
2017-06-29T04:33:12.659Z,20
2017-06-29T04:33:53.240Z,20
2017-06-29T04:34:33.829Z,20
2017-06-29T04:35:14.399Z,20
2017-06-29T04:35:54.982Z,20
2017-06-29T04:36:35.587Z,20
2017-06-29T04:37:16.135Z,15
2017-06-29T04:37:57.174Z,20
2017-06-29T04:38:38.083Z,20
2017-06-29T04:39:18.742Z,20
2017-06-29T04:39:59.367Z,20
2017-06-29T04:40:40.078Z,20
2017-06-29T04:41:20.675Z,20
2017-06-29T04:42:01.362Z,20
2017-06-29T04:42:41.977Z,15
2017-06-29T04:43:22.583Z,15
2017-06-29T04:44:03.230Z,15
2017-06-29T04:44:43.872Z,20
2017-06-29T04:45:24.529Z,20
2017-06-29T04:46:05.323Z,20
2017-06-29T04:46:45.890Z,20
2017-06-29T04:47:26.483Z,20
2017-06-29T04:48:07.072Z,20
2017-06-29T04:48:47.661Z,20
2017-06-29T04:49:28.318Z,20
2017-06-29T04:50:08.885Z,20
2017-06-29T04:50:49.462Z,20
2017-06-29T04:51:30.054Z,20
2017-06-29T04:52:10.635Z,15
2017-06-29T04:52:51.271Z,15
2017-06-29T04:53:31.856Z,15
2017-06-29T04:54:12.457Z,15
2017-06-29T04:54:53.041Z,20
2017-06-29T04:55:33.606Z,20
2017-06-29T04:56:14.193Z,20
2017-06-29T04:56:54.763Z,20
2017-06-29T04:57:35.346Z,20
2017-06-29T04:58:15.941Z,20
2017-06-29T04:58:56.541Z,20
2017-06-29T04:59:37.138Z,20
2017-06-29T05:00:17.766Z,20
2017-06-29T05:00:58.332Z,20
2017-06-29T05:01:38.917Z,20
2017-06-29T05:02:19.485Z,20
2017-06-29T05:03:00.062Z,20
2017-06-29T05:03:40.653Z,20
2017-06-29T05:04:21.227Z,25
2017-06-29T05:05:01.806Z,25
2017-06-29T05:05:42.409Z,25
2017-06-29T05:06:22.980Z,25
2017-06-29T05:07:03.579Z,30
2017-06-29T05:07:44.162Z,35
2017-06-29T05:08:24.782Z,40
2017-06-29T05:09:05.387Z,40
2017-06-29T05:09:45.985Z,40
2017-06-29T05:10:26.605Z,45
2017-06-29T05:11:07.196Z,40
2017-06-29T05:11:47.768Z,40
2017-06-29T05:12:28.359Z,40
2017-06-29T05:13:08.980Z,40
2017-06-29T05:13:49.565Z,40
2017-06-29T05:14:30.186Z,35
2017-06-29T05:15:10.753Z,35
2017-06-29T05:15:51.334Z,35
2017-06-29T05:16:31.903Z,35
2017-06-29T05:17:12.484Z,40
2017-06-29T05:17:53.064Z,40
2017-06-29T05:18:33.648Z,45
2017-06-29T05:19:14.229Z,45
2017-06-29T05:19:54.807Z,45
2017-06-29T05:20:35.378Z,50
2017-06-29T05:21:15.948Z,50
2017-06-29T05:21:56.516Z,45
2017-06-29T05:22:37.090Z,45
2017-06-29T05:23:17.665Z,45
2017-06-29T05:23:58.241Z,50
2017-06-29T05:24:38.839Z,60
2017-06-29T05:25:19.416Z,55
2017-06-29T05:25:59.996Z,50
2017-06-29T05:26:40.571Z,50
2017-06-29T05:27:21.136Z,50
2017-06-29T05:28:01.700Z,50
2017-06-29T05:28:42.288Z,45
2017-06-29T05:29:22.851Z,50
2017-06-29T05:30:03.432Z,45
2017-06-29T05:30:44.021Z,50
2017-06-29T05:31:24.588Z,50
2017-06-29T05:32:05.156Z,50
2017-06-29T05:32:45.760Z,60
2017-06-29T05:33:26.382Z,65
2017-06-29T05:34:06.982Z,55
2017-06-29T05:34:47.552Z,55
2017-06-29T05:35:28.166Z,60
2017-06-29T05:36:08.757Z,80
2017-06-29T05:36:49.328Z,75
2017-06-29T05:37:29.894Z,80
2017-06-29T05:38:10.502Z,75
2017-06-29T05:38:51.069Z,65
2017-06-29T05:39:31.637Z,65
2017-06-29T05:40:12.224Z,65
2017-06-29T05:40:52.805Z,65
2017-06-29T05:41:33.372Z,60
2017-06-29T05:42:13.945Z,50
2017-06-29T05:42:54.513Z,55
2017-06-29T05:43:35.113Z,50
2017-06-29T05:44:15.679Z,45
2017-06-29T05:44:56.367Z,40
2017-06-29T05:45:36.986Z,45
2017-06-29T05:46:17.565Z,40
2017-06-29T05:46:58.216Z,40
2017-06-29T05:47:38.828Z,40
2017-06-29T05:48:19.455Z,45
2017-06-29T05:49:00.117Z,45
2017-06-29T05:49:40.706Z,45
2017-06-29T05:50:21.279Z,45
2017-06-29T05:51:01.844Z,45
2017-06-29T05:51:42.443Z,45
2017-06-29T05:52:23.008Z,45
2017-06-29T05:53:03.577Z,40
2017-06-29T05:53:44.138Z,35
2017-06-29T05:54:24.709Z,40
2017-06-29T05:55:05.280Z,35
2017-06-29T05:55:45.869Z,35
2017-06-29T05:56:26.511Z,35
2017-06-29T05:57:07.059Z,40
2017-06-29T05:57:47.637Z,40
2017-06-29T05:58:28.234Z,35
2017-06-29T05:59:08.822Z,40
2017-06-29T05:59:49.427Z,40
2017-06-29T06:00:30.008Z,40
2017-06-29T06:01:10.612Z,40
2017-06-29T06:01:51.187Z,40
2017-06-29T06:02:31.792Z,40
2017-06-29T06:03:12.366Z,45
2017-06-29T06:03:52.942Z,45
2017-06-29T06:04:33.548Z,45
2017-06-29T06:05:14.131Z,45
2017-06-29T06:05:54.822Z,40
2017-06-29T06:06:35.413Z,45
2017-06-29T06:07:15.987Z,45
2017-06-29T06:07:56.590Z,40
2017-06-29T06:08:37.180Z,45
2017-06-29T06:09:17.750Z,50
2017-06-29T06:09:58.334Z,50
2017-06-29T06:10:38.951Z,50
2017-06-29T06:11:19.567Z,55
2017-06-29T06:12:00.152Z,55
2017-06-29T06:12:40.743Z,55
2017-06-29T06:13:21.353Z,50
2017-06-29T06:14:02.009Z,60
2017-06-29T06:14:42.594Z,65
2017-06-29T06:15:23.184Z,70
2017-06-29T06:16:03.767Z,90
2017-06-29T06:16:44.387Z,100
2017-06-29T06:17:24.993Z,130
2017-06-29T06:18:05.648Z,145
2017-06-29T06:18:46.252Z,115
2017-06-29T06:19:26.856Z,110
2017-06-29T06:20:07.439Z,120
2017-06-29T06:20:48.016Z,115
2017-06-29T06:21:28.622Z,145
2017-06-29T06:22:09.204Z,130
2017-06-29T06:22:49.805Z,100
2017-06-29T06:23:30.425Z,100
2017-06-29T06:24:10.999Z,125
2017-06-29T06:24:51.657Z,115
2017-06-29T06:25:32.262Z,90
2017-06-29T06:26:12.855Z,115
2017-06-29T06:26:53.454Z,95
2017-06-29T06:27:34.052Z,105
2017-06-29T06:28:14.630Z,95
2017-06-29T06:28:55.226Z,95
2017-06-29T06:29:35.824Z,145
2017-06-29T06:30:16.401Z,225
2017-06-29T06:30:57.007Z,270
2017-06-29T06:31:37.591Z,140
2017-06-29T06:32:18.177Z,130
2017-06-29T06:32:58.745Z,120
2017-06-29T06:33:39.343Z,100
2017-06-29T06:34:19.916Z,130
2017-06-29T06:35:00.534Z,155
2017-06-29T06:35:41.125Z,160
2017-06-29T06:36:21.719Z,160
2017-06-29T06:37:02.294Z,230
2017-06-29T06:37:42.857Z,210
2017-06-29T06:38:23.463Z,175
2017-06-29T06:39:04.063Z,185
2017-06-29T06:39:44.656Z,175
2017-06-29T06:40:25.245Z,175
2017-06-29T06:41:05.826Z,170
2017-06-29T06:41:46.430Z,135
2017-06-29T06:42:27.024Z,165
2017-06-29T06:43:07.625Z,155
2017-06-29T06:43:48.319Z,190
2017-06-29T06:44:28.894Z,175
2017-06-29T06:45:09.501Z,125
2017-06-29T06:45:50.072Z,120
2017-06-29T06:46:30.722Z,115
2017-06-29T06:47:11.340Z,110
2017-06-29T06:47:51.930Z,95
2017-06-29T06:48:32.527Z,95
2017-06-29T06:49:13.101Z,100
2017-06-29T06:49:53.669Z,95
2017-06-29T06:50:34.263Z,90
2017-06-29T06:51:14.837Z,95
2017-06-29T06:51:55.437Z,95
2017-06-29T06:52:36.039Z,90
2017-06-29T06:53:16.618Z,90
2017-06-29T06:53:57.204Z,100
2017-06-29T06:54:37.789Z,100
2017-06-29T06:55:18.384Z,105
2017-06-29T06:55:58.972Z,100
2017-06-29T06:56:39.551Z,95
2017-06-29T06:57:20.143Z,95
2017-06-29T06:58:00.720Z,85
2017-06-29T06:58:41.332Z,80
2017-06-29T06:59:21.919Z,90
2017-06-29T07:00:02.491Z,85
2017-06-29T07:00:43.083Z,75
2017-06-29T07:01:23.663Z,85
2017-06-29T07:02:04.236Z,80
2017-06-29T07:02:44.896Z,80
2017-06-29T07:03:25.496Z,85
2017-06-29T07:04:06.085Z,90
2017-06-29T07:04:46.695Z,100
2017-06-29T07:05:27.350Z,90
2017-06-29T07:06:08.045Z,80
2017-06-29T07:06:48.766Z,75
2017-06-29T07:07:29.694Z,100
2017-06-29T07:08:10.549Z,110
2017-06-29T07:08:51.239Z,145
2017-06-29T07:09:31.831Z,170
2017-06-29T07:10:12.526Z,220
2017-06-29T07:10:53.157Z,215
2017-06-29T07:11:36.374Z,155
2017-06-29T07:12:17.009Z,105
2017-06-29T07:12:57.684Z,80
2017-06-29T07:13:38.374Z,70
2017-06-29T07:14:18.982Z,75
2017-06-29T07:14:59.781Z,85
2017-06-29T07:15:40.399Z,85
2017-06-29T07:16:21.015Z,95
2017-06-29T07:17:01.592Z,115
2017-06-29T07:17:42.177Z,125
2017-06-29T07:18:22.768Z,105
2017-06-29T07:19:03.344Z,115
2017-06-29T07:19:43.927Z,135
2017-06-29T07:20:24.518Z,155
2017-06-29T07:21:05.150Z,195
2017-06-29T07:21:46.098Z,160
2017-06-29T07:22:27.856Z,165
2017-06-29T07:23:08.546Z,125
2017-06-29T07:23:49.472Z,110
2017-06-29T07:24:30.053Z,105
2017-06-29T07:25:10.711Z,120
2017-06-29T07:25:51.290Z,120
2017-06-29T07:26:31.977Z,125
2017-06-29T07:27:12.558Z,135
2017-06-29T07:27:53.181Z,145
2017-06-29T07:28:33.740Z,135
2017-06-29T07:29:14.319Z,125
2017-06-29T07:29:54.908Z,130
2017-06-29T07:30:35.485Z,145
2017-06-29T07:31:16.058Z,145
2017-06-29T07:31:56.659Z,145
2017-06-29T07:32:37.250Z,130
2017-06-29T07:33:17.883Z,130
2017-06-29T07:33:58.500Z,120
2017-06-29T07:34:39.098Z,115
2017-06-29T07:35:19.691Z,110
2017-06-29T07:36:00.265Z,105
2017-06-29T07:36:40.908Z,100
2017-06-29T07:37:21.533Z,100
2017-06-29T07:38:02.120Z,100
2017-06-29T07:38:42.703Z,95
2017-06-29T07:39:23.294Z,90
2017-06-29T07:40:03.882Z,85
2017-06-29T07:40:44.445Z,80
2017-06-29T07:41:25.045Z,75
2017-06-29T07:42:05.615Z,75
2017-06-29T07:42:46.206Z,75
2017-06-29T07:43:26.798Z,70
2017-06-29T07:44:07.429Z,70
2017-06-29T07:44:48.041Z,65
2017-06-29T07:45:28.630Z,65
2017-06-29T07:46:09.227Z,65
2017-06-29T07:46:49.831Z,70
2017-06-29T07:47:30.427Z,70
2017-06-29T07:48:11.064Z,70
2017-06-29T07:48:51.693Z,70
2017-06-29T07:49:33.200Z,70
2017-06-29T07:50:14.878Z,65
2017-06-29T07:50:56.994Z,65
2017-06-29T07:51:38.617Z,60
2017-06-29T07:52:19.426Z,60
2017-06-29T07:53:00.043Z,65
2017-06-29T07:53:40.703Z,65
2017-06-29T07:54:21.325Z,60
2017-06-29T07:55:01.962Z,60
2017-06-29T07:55:42.657Z,65
2017-06-29T07:56:23.321Z,65
2017-06-29T07:57:03.944Z,65
2017-06-29T07:57:44.656Z,60
2017-06-29T07:58:25.251Z,60
2017-06-29T07:59:05.909Z,60
2017-06-29T07:59:46.525Z,60
2017-06-29T08:00:27.110Z,60
2017-06-29T08:01:07.690Z,55
2017-06-29T08:01:48.272Z,55
2017-06-29T08:02:28.861Z,55
2017-06-29T08:03:09.466Z,60
2017-06-29T08:03:50.043Z,60
2017-06-29T08:04:30.613Z,65
2017-06-29T08:05:11.217Z,60
2017-06-29T08:05:51.783Z,60
2017-06-29T08:06:32.363Z,55
2017-06-29T08:07:12.944Z,55
2017-06-29T08:07:53.566Z,50
2017-06-29T08:08:34.096Z,50
2017-06-29T08:09:14.671Z,50
2017-06-29T08:09:55.252Z,50
2017-06-29T08:10:36.030Z,50
2017-06-29T08:11:16.647Z,50
2017-06-29T08:11:57.261Z,50
2017-06-29T08:12:37.855Z,50
2017-06-29T08:13:18.427Z,50
2017-06-29T08:13:59.015Z,50
2017-06-29T08:14:40.017Z,50
2017-06-29T08:15:20.611Z,50
2017-06-29T08:16:01.216Z,50
2017-06-29T08:16:41.797Z,50
2017-06-29T08:17:22.368Z,55
2017-06-29T08:18:02.959Z,55
2017-06-29T08:18:43.546Z,50
2017-06-29T08:19:24.119Z,50
2017-06-29T08:20:04.727Z,50
2017-06-29T08:20:45.322Z,50
2017-06-29T08:21:25.901Z,50
2017-06-29T08:22:06.498Z,50
2017-06-29T08:22:47.078Z,50
2017-06-29T08:23:27.666Z,55
2017-06-29T08:24:08.324Z,60
2017-06-29T08:24:48.916Z,55
2017-06-29T08:25:29.495Z,55
2017-06-29T08:26:10.054Z,45
2017-06-29T08:26:50.625Z,40
2017-06-29T08:27:31.211Z,40
2017-06-29T08:28:11.796Z,40
2017-06-29T08:28:52.393Z,40
2017-06-29T08:29:32.966Z,40
2017-06-29T08:30:13.565Z,35
2017-06-29T08:30:54.140Z,35
2017-06-29T08:31:34.716Z,40
2017-06-29T08:32:15.321Z,40
2017-06-29T08:32:55.935Z,40
2017-06-29T08:33:36.526Z,45
2017-06-29T08:34:17.110Z,45
2017-06-29T08:34:57.683Z,45
2017-06-29T08:35:38.254Z,45
2017-06-29T08:36:18.832Z,45
2017-06-29T08:36:59.419Z,50
2017-06-29T08:37:39.990Z,50
2017-06-29T08:38:20.562Z,50
2017-06-29T08:39:01.147Z,50
2017-06-29T08:39:41.764Z,55
2017-06-29T08:40:22.390Z,50
2017-06-29T08:41:02.956Z,50
2017-06-29T08:41:43.566Z,50
2017-06-29T08:42:24.164Z,50
2017-06-29T08:43:04.751Z,50
2017-06-29T08:43:45.313Z,50
2017-06-29T08:44:25.885Z,55
2017-06-29T08:45:06.475Z,60
2017-06-29T08:45:47.048Z,55
2017-06-29T08:46:27.646Z,50
2017-06-29T08:47:08.229Z,55
2017-06-29T08:47:48.805Z,60
2017-06-29T08:48:29.376Z,60
2017-06-29T08:49:09.943Z,60
2017-06-29T08:49:50.513Z,60
2017-06-29T08:50:31.106Z,55
2017-06-29T08:51:11.716Z,55
2017-06-29T08:51:52.286Z,50
2017-06-29T08:52:32.861Z,50
2017-06-29T08:53:13.433Z,45
2017-06-29T08:53:54.022Z,45
2017-06-29T08:54:34.618Z,45
2017-06-29T08:55:15.236Z,45
2017-06-29T08:55:55.819Z,50
2017-06-29T08:56:36.457Z,50
2017-06-29T08:57:17.043Z,50
2017-06-29T08:57:57.637Z,50
2017-06-29T08:58:38.220Z,45
2017-06-29T08:59:18.807Z,45
2017-06-29T08:59:59.429Z,35
2017-06-29T09:00:40.061Z,30
2017-06-29T09:01:20.680Z,30
2017-06-29T09:02:01.258Z,35
2017-06-29T09:02:41.834Z,35
2017-06-29T09:03:22.404Z,30
2017-06-29T09:04:02.972Z,30
2017-06-29T09:04:43.614Z,30
2017-06-29T09:05:24.197Z,30
2017-06-29T09:06:04.765Z,30
2017-06-29T09:06:45.332Z,30
2017-06-29T09:07:25.937Z,35
2017-06-29T09:08:06.563Z,35
2017-06-29T09:08:47.197Z,35
2017-06-29T09:09:27.794Z,35
2017-06-29T09:10:08.393Z,35
2017-06-29T09:10:48.987Z,40
2017-06-29T09:11:29.566Z,40
2017-06-29T09:12:10.139Z,40
2017-06-29T09:12:50.723Z,35
2017-06-29T09:13:31.298Z,30
2017-06-29T09:14:11.898Z,35
2017-06-29T09:14:52.451Z,30
2017-06-29T09:15:33.049Z,30
2017-06-29T09:16:13.691Z,30
2017-06-29T09:16:54.232Z,30
2017-06-29T09:17:34.812Z,35
2017-06-29T09:18:15.401Z,40
2017-06-29T09:18:56.022Z,45
2017-06-29T09:19:36.630Z,40
2017-06-29T09:20:17.242Z,40
2017-06-29T09:20:57.818Z,35
2017-06-29T09:21:38.427Z,35
2017-06-29T09:22:19.013Z,35
2017-06-29T09:22:59.587Z,35
2017-06-29T09:23:40.153Z,30
2017-06-29T09:24:20.736Z,25
2017-06-29T09:25:01.316Z,20
2017-06-29T09:25:41.903Z,15
2017-06-29T09:26:22.473Z,15
2017-06-29T09:27:03.037Z,15
2017-06-29T09:27:43.632Z,15
2017-06-29T09:28:24.197Z,15
2017-06-29T09:29:04.779Z,10
2017-06-29T09:29:45.335Z,10
2017-06-29T09:30:25.897Z,10
2017-06-29T09:31:06.503Z,10
2017-06-29T09:31:47.085Z,10
2017-06-29T09:32:27.669Z,10
2017-06-29T09:33:08.238Z,5
2017-06-29T09:33:48.811Z,5
2017-06-29T09:34:29.452Z,5
2017-06-29T09:35:10.016Z,5
2017-06-29T09:35:50.620Z,5
2017-06-29T09:36:31.201Z,5
2017-06-29T09:37:11.784Z,0
2017-06-29T09:37:52.404Z,0
2017-06-29T09:38:32.996Z,0
2017-06-29T09:39:13.592Z,0
2017-06-29T09:39:54.186Z,0
2017-06-29T09:40:34.767Z,0
2017-06-29T09:41:15.371Z,0
2017-06-29T09:41:55.925Z,5
2017-06-29T09:42:36.511Z,5
2017-06-29T09:43:17.086Z,5
2017-06-29T09:43:57.672Z,5
2017-06-29T09:44:38.252Z,5
2017-06-29T09:45:18.816Z,10